This is the latest recevied weather packets stored in our database for station/object K1AWR. If no packets are shown the sender has not sent any weather packets the latest 1 day(s).
| Time | Temp. | Humidity | Pressure | Rain* | Wind** | Luminosity | Snow |
|---|---|---|---|---|---|---|---|
| 1778081365 | 20° C | 66% | 1009.4 hPa | 0 mm | - | 126 W/m² | - |
| 1778077731 | 18.89° C | 69% | 1009.7 hPa | 0 mm | - | 112 W/m² | - |
| 1778076219 | 18.33° C | 72% | 1009.8 hPa | 0 mm | - | 127 W/m² | - |
| 1778075916 | 18.33° C | 72% | 1010 hPa | 0 mm | - | 107 W/m² | - |
| 1778075309 | 17.78° C | 72% | 1009.7 hPa | 0 mm | - | 120 W/m² | - |
| 1778074096 | 17.78° C | 74% | 1009.6 hPa | 0 mm | - | 134 W/m² | - |
| 1778073187 | 17.22° C | 74% | 1009.8 hPa | 0 mm | - | 149 W/m² | - |
| 1778071372 | 16.67° C | 76% | 1010.4 hPa | 0 mm | - | 95 W/m² | - |
| 1778070768 | 16.67° C | 76% | 1010.4 hPa | 0 mm | - | 100 W/m² | - |
| 1778069556 | 16.11° C | 78% | 1010.3 hPa | 0 mm | - | 214 W/m² | - |
| 1778068649 | 16.11° C | 78% | 1010.3 hPa | 0 mm | - | 58 W/m² | - |
| 1778068347 | 16.11° C | 78% | 1010.4 hPa | 0 mm | - | 81 W/m² | - |
| 1778067440 | 15.56° C | 79% | 1010.4 hPa | 0 mm | - | 70 W/m² | - |
| 1778067137 | 15.56° C | 79% | 1010.5 hPa | 0 mm | - | 68 W/m² | - |
| 1778065017 | 14.44° C | 83% | 1010.5 hPa | 0 mm | - | 47 W/m² | - |
| 1778064714 | 14.44° C | 83% | 1010.4 hPa | 0 mm | - | 40 W/m² | - |
| 1778064412 | 14.44° C | 83% | 1010.7 hPa | 0 mm | - | 20 W/m² | - |
| 1778062595 | 13.89° C | 84% | 1010.3 hPa | 0 mm | - | 22 W/m² | - |
| 1778062292 | 13.89° C | 84% | 1010.2 hPa | 0 mm | - | 14 W/m² | - |
| 1778061991 | 13.89° C | 83% | 1010.6 hPa | 0 mm | - | 9 W/m² | - |
| 1778061083 | 13.89° C | 83% | 1010.3 hPa | 0 mm | - | 3 W/m² | - |
| 1778060478 | 13.89° C | 83% | 1010.2 hPa | 0 mm | - | 1 W/m² | - |
| 1778059873 | 13.89° C | 83% | 1010.3 hPa | 0 mm | - | 0 W/m² | - |
| 1778059571 | 13.89° C | 82% | 1010.2 hPa | 0 mm | - | 0 W/m² | - |
| 1778059268 | 13.89° C | 82% | 1010.2 hPa | 0 mm | - | 0 W/m² | - |
* Rain latest hour (hover to see other rain measurements)
** Current wind speed in m/s (hover to see current wind gust speed)